CheckWX is a tool to help pilots better visualize weather data.  It is not intended as a substitute for an official pre-flight weather briefing.

10:14:14 UTC

LFPG TAF
Charles de Gaulle International Airport
Paris, France
TAF LFPG 260500Z 2606/2712 02010KT 7000 NSC TX34/2615Z TN20/2703Z TEMPO 2606/2608 4000 BR TEMPO 2611/2624 04015G25KT

Jun-26@
06:00 UTC

Jun-26 @ 06:00 UTC

Jun-27@
12:00 UTC

Jun-27 @ 12:00 UTC

TAF LFPG 260500Z 2606/2712 02010KT 7000 NSC TX34/2615Z TN20/2703Z
Wind
  • 020° at 10 KTS
Cloud Levels
  • No significant clouds

Jun-26@
06:00 UTC

Jun-26 @ 06:00 UTC

Jun-26@
08:00 UTC

Jun-26 @ 08:00 UTC

TEMPO 2606/2608 4000 BR

Expired

Conditions
Mist

Jun-26@
11:00 UTC

Jun-26 @ 11:00 UTC

Jun-27@
00:00 UTC

Jun-27 @ 00:00 UTC

TEMPO 2611/2624 04015G25KT

Temporary

Temporary Changes expected for less than half the time period

Wind
  • 040° at 15 KTS
  • {Gusting to 25 KTS